sensor_id;sensor_type;location;lat;lon;timestamp;temperature;humidity
74081;SHT31;62438;52.228;6.864;2023-05-07T00:00:56;13.74;99.99
74081;SHT31;62438;52.228;6.864;2023-05-07T00:02:56;13.73;99.99
74081;SHT31;62438;52.228;6.864;2023-05-07T00:04:57;13.73;99.99
74081;SHT31;62438;52.228;6.864;2023-05-07T00:06:58;13.71;99.99
74081;SHT31;62438;52.228;6.864;2023-05-07T00:08:58;13.74;99.99
74081;SHT31;62438;52.228;6.864;2023-05-07T00:10:59;13.73;99.99
74081;SHT31;62438;52.228;6.864;2023-05-07T00:13:00;13.73;99.78
74081;SHT31;62438;52.228;6.864;2023-05-07T00:15:02;13.73;99.74
74081;SHT31;62438;52.228;6.864;2023-05-07T00:17:03;13.74;99.62
74081;SHT31;62438;52.228;6.864;2023-05-07T00:19:04;13.74;99.88
74081;SHT31;62438;52.228;6.864;2023-05-07T00:21:04;13.81;99.81
74081;SHT31;62438;52.228;6.864;2023-05-07T00:23:05;13.78;99.52
74081;SHT31;62438;52.228;6.864;2023-05-07T00:25:05;13.78;99.75
74081;SHT31;62438;52.228;6.864;2023-05-07T00:27:06;13.81;99.71
74081;SHT31;62438;52.228;6.864;2023-05-07T00:29:06;13.77;99.42
74081;SHT31;62438;52.228;6.864;2023-05-07T00:31:07;13.77;99.78
74081;SHT31;62438;52.228;6.864;2023-05-07T00:33:07;13.75;99.65
74081;SHT31;62438;52.228;6.864;2023-05-07T00:35:08;13.75;99.92
74081;SHT31;62438;52.228;6.864;2023-05-07T00:37:08;13.77;99.67
74081;SHT31;62438;52.228;6.864;2023-05-07T00:39:09;13.75;99.60
74081;SHT31;62438;52.228;6.864;2023-05-07T00:41:09;13.73;99.87
74081;SHT31;62438;52.228;6.864;2023-05-07T00:43:10;13.71;99.88
74081;SHT31;62438;52.228;6.864;2023-05-07T00:45:10;13.70;99.86
74081;SHT31;62438;52.228;6.864;2023-05-07T00:47:11;13.69;99.78
74081;SHT31;62438;52.228;6.864;2023-05-07T00:49:11;13.70;99.74
74081;SHT31;62438;52.228;6.864;2023-05-07T00:51:12;13.73;99.32
74081;SHT31;62438;52.228;6.864;2023-05-07T00:53:13;13.73;99.53
74081;SHT31;62438;52.228;6.864;2023-05-07T00:55:13;13.70;99.79
74081;SHT31;62438;52.228;6.864;2023-05-07T00:57:14;13.66;99.90
74081;SHT31;62438;52.228;6.864;2023-05-07T00:59:15;13.61;99.99
74081;SHT31;62438;52.228;6.864;2023-05-07T01:01:15;13.60;99.99
74081;SHT31;62438;52.228;6.864;2023-05-07T01:03:16;13.61;99.99
74081;SHT31;62438;52.228;6.864;2023-05-07T01:05:18;13.56;99.98
74081;SHT31;62438;52.228;6.864;2023-05-07T01:07:19;13.56;99.70
74081;SHT31;62438;52.228;6.864;2023-05-07T01:09:20;13.56;99.82
74081;SHT31;62438;52.228;6.864;2023-05-07T01:11:21;13.56;99.96
74081;SHT31;62438;52.228;6.864;2023-05-07T01:13:22;13.60;99.99
74081;SHT31;62438;52.228;6.864;2023-05-07T01:15:23;13.59;99.84
74081;SHT31;62438;52.228;6.864;2023-05-07T01:17:24;13.59;99.36
74081;SHT31;62438;52.228;6.864;2023-05-07T01:19:24;13.54;99.84
74081;SHT31;62438;52.228;6.864;2023-05-07T01:21:26;13.50;99.53
74081;SHT31;62438;52.228;6.864;2023-05-07T01:23:27;13.57;99.40
74081;SHT31;62438;52.228;6.864;2023-05-07T01:25:28;13.56;99.34
74081;SHT31;62438;52.228;6.864;2023-05-07T01:27:29;13.47;99.60
74081;SHT31;62438;52.228;6.864;2023-05-07T01:29:29;13.47;99.79
74081;SHT31;62438;52.228;6.864;2023-05-07T01:31:30;13.44;99.74
74081;SHT31;62438;52.228;6.864;2023-05-07T01:33:35;13.47;99.58
74081;SHT31;62438;52.228;6.864;2023-05-07T01:35:39;13.56;99.08
74081;SHT31;62438;52.228;6.864;2023-05-07T01:37:40;13.46;98.95
74081;SHT31;62438;52.228;6.864;2023-05-07T01:39:42;13.38;98.59
74081;SHT31;62438;52.228;6.864;2023-05-07T01:41:43;13.35;99.17
74081;SHT31;62438;52.228;6.864;2023-05-07T01:43:43;13.44;98.96
74081;SHT31;62438;52.228;6.864;2023-05-07T01:45:44;13.33;99.25
74081;SHT31;62438;52.228;6.864;2023-05-07T01:47:46;13.27;99.22
74081;SHT31;62438;52.228;6.864;2023-05-07T01:49:47;13.29;99.54
74081;SHT31;62438;52.228;6.864;2023-05-07T01:51:47;13.23;99.22
74081;SHT31;62438;52.228;6.864;2023-05-07T01:53:48;13.20;99.31
74081;SHT31;62438;52.228;6.864;2023-05-07T01:55:50;13.15;99.53
74081;SHT31;62438;52.228;6.864;2023-05-07T01:57:51;13.15;99.49
74081;SHT31;62438;52.228;6.864;2023-05-07T01:59:51;13.12;99.35
74081;SHT31;62438;52.228;6.864;2023-05-07T02:01:52;13.13;99.51
74081;SHT31;62438;52.228;6.864;2023-05-07T02:03:52;13.09;99.33
74081;SHT31;62438;52.228;6.864;2023-05-07T02:05:53;13.12;99.40
74081;SHT31;62438;52.228;6.864;2023-05-07T02:07:54;13.09;99.23
74081;SHT31;62438;52.228;6.864;2023-05-07T02:09:54;13.05;99.39
74081;SHT31;62438;52.228;6.864;2023-05-07T02:11:55;13.05;99.02
74081;SHT31;62438;52.228;6.864;2023-05-07T02:13:55;13.01;99.42
74081;SHT31;62438;52.228;6.864;2023-05-07T02:15:56;12.94;98.90
74081;SHT31;62438;52.228;6.864;2023-05-07T02:18:01;12.95;99.38
74081;SHT31;62438;52.228;6.864;2023-05-07T02:20:02;12.95;99.00
74081;SHT31;62438;52.228;6.864;2023-05-07T02:22:04;13.05;99.02
74081;SHT31;62438;52.228;6.864;2023-05-07T02:24:04;13.05;98.80
74081;SHT31;62438;52.228;6.864;2023-05-07T02:26:05;12.96;98.91
74081;SHT31;62438;52.228;6.864;2023-05-07T02:28:05;12.87;98.62
74081;SHT31;62438;52.228;6.864;2023-05-07T02:30:06;12.88;98.79
74081;SHT31;62438;52.228;6.864;2023-05-07T02:32:07;12.87;98.72
74081;SHT31;62438;52.228;6.864;2023-05-07T02:34:07;12.85;98.62
74081;SHT31;62438;52.228;6.864;2023-05-07T02:36:09;12.81;98.79
74081;SHT31;62438;52.228;6.864;2023-05-07T02:38:10;12.78;98.89
74081;SHT31;62438;52.228;6.864;2023-05-07T02:40:11;12.78;98.74
74081;SHT31;62438;52.228;6.864;2023-05-07T02:42:11;12.71;98.90
74081;SHT31;62438;52.228;6.864;2023-05-07T02:44:12;12.69;98.50
74081;SHT31;62438;52.228;6.864;2023-05-07T02:46:12;12.65;98.71
74081;SHT31;62438;52.228;6.864;2023-05-07T02:48:12;12.68;99.22
74081;SHT31;62438;52.228;6.864;2023-05-07T02:50:13;12.75;98.73
74081;SHT31;62438;52.228;6.864;2023-05-07T02:52:13;12.64;98.61
74081;SHT31;62438;52.228;6.864;2023-05-07T02:54:14;12.63;98.62
74081;SHT31;62438;52.228;6.864;2023-05-07T02:56:14;12.61;98.41
74081;SHT31;62438;52.228;6.864;2023-05-07T02:58:15;12.60;98.60
74081;SHT31;62438;52.228;6.864;2023-05-07T03:00:17;12.54;98.46
74081;SHT31;62438;52.228;6.864;2023-05-07T03:02:17;12.58;98.59
74081;SHT31;62438;52.228;6.864;2023-05-07T03:04:18;12.63;98.51
74081;SHT31;62438;52.228;6.864;2023-05-07T03:06:18;12.58;98.18
74081;SHT31;62438;52.228;6.864;2023-05-07T03:08:19;12.54;98.05
74081;SHT31;62438;52.228;6.864;2023-05-07T03:10:19;12.58;98.53
74081;SHT31;62438;52.228;6.864;2023-05-07T03:12:20;12.60;98.33
74081;SHT31;62438;52.228;6.864;2023-05-07T03:14:20;12.51;98.46
74081;SHT31;62438;52.228;6.864;2023-05-07T03:16:21;12.40;98.49
74081;SHT31;62438;52.228;6.864;2023-05-07T03:18:21;12.38;98.61
74081;SHT31;62438;52.228;6.864;2023-05-07T03:20:22;12.34;98.20
74081;SHT31;62438;52.228;6.864;2023-05-07T03:22:22;12.36;98.17
74081;SHT31;62438;52.228;6.864;2023-05-07T03:24:22;12.36;98.36
74081;SHT31;62438;52.228;6.864;2023-05-07T03:26:23;12.23;98.51
74081;SHT31;62438;52.228;6.864;2023-05-07T03:28:23;12.33;98.39
74081;SHT31;62438;52.228;6.864;2023-05-07T03:30:24;12.25;98.03
74081;SHT31;62438;52.228;6.864;2023-05-07T03:32:24;12.15;98.13
74081;SHT31;62438;52.228;6.864;2023-05-07T03:34:25;12.06;98.22
74081;SHT31;62438;52.228;6.864;2023-05-07T03:36:25;12.07;98.44
74081;SHT31;62438;52.228;6.864;2023-05-07T03:38:27;12.07;98.28
74081;SHT31;62438;52.228;6.864;2023-05-07T03:40:28;11.99;98.15
74081;SHT31;62438;52.228;6.864;2023-05-07T03:42:28;11.92;98.54
74081;SHT31;62438;52.228;6.864;2023-05-07T03:44:29;11.92;98.65
74081;SHT31;62438;52.228;6.864;2023-05-07T03:46:29;11.99;98.55
74081;SHT31;62438;52.228;6.864;2023-05-07T03:48:29;11.90;98.46
74081;SHT31;62438;52.228;6.864;2023-05-07T03:50:30;11.85;98.44
74081;SHT31;62438;52.228;6.864;2023-05-07T03:52:30;11.99;98.07
74081;SHT31;62438;52.228;6.864;2023-05-07T03:54:31;12.00;97.91
74081;SHT31;62438;52.228;6.864;2023-05-07T03:56:31;11.93;98.14
74081;SHT31;62438;52.228;6.864;2023-05-07T03:58:31;11.88;98.23
74081;SHT31;62438;52.228;6.864;2023-05-07T04:00:32;11.81;98.23
74081;SHT31;62438;52.228;6.864;2023-05-07T04:02:37;11.81;98.74
74081;SHT31;62438;52.228;6.864;2023-05-07T04:04:37;11.79;98.68
74081;SHT31;62438;52.228;6.864;2023-05-07T04:06:38;11.79;98.28
74081;SHT31;62438;52.228;6.864;2023-05-07T04:08:38;11.78;98.31
74081;SHT31;62438;52.228;6.864;2023-05-07T04:10:38;11.69;98.25
74081;SHT31;62438;52.228;6.864;2023-05-07T04:12:39;11.82;98.44
74081;SHT31;62438;52.228;6.864;2023-05-07T04:14:39;11.78;98.11
74081;SHT31;62438;52.228;6.864;2023-05-07T04:16:39;11.81;98.03
74081;SHT31;62438;52.228;6.864;2023-05-07T04:18:40;11.79;98.20
74081;SHT31;62438;52.228;6.864;2023-05-07T04:20:41;11.75;98.25
74081;SHT31;62438;52.228;6.864;2023-05-07T04:22:41;11.75;98.03
74081;SHT31;62438;52.228;6.864;2023-05-07T04:24:42;11.72;98.13
74081;SHT31;62438;52.228;6.864;2023-05-07T04:26:42;11.75;98.14
74081;SHT31;62438;52.228;6.864;2023-05-07T04:28:43;11.74;98.02
74081;SHT31;62438;52.228;6.864;2023-05-07T04:30:43;11.76;98.48
74081;SHT31;62438;52.228;6.864;2023-05-07T04:32:43;11.82;98.25
74081;SHT31;62438;52.228;6.864;2023-05-07T04:34:44;11.85;98.16
74081;SHT31;62438;52.228;6.864;2023-05-07T04:36:45;11.72;97.77
74081;SHT31;62438;52.228;6.864;2023-05-07T04:38:46;11.79;97.92
74081;SHT31;62438;52.228;6.864;2023-05-07T04:40:46;11.83;97.92
74081;SHT31;62438;52.228;6.864;2023-05-07T04:42:47;11.74;97.74
74081;SHT31;62438;52.228;6.864;2023-05-07T04:44:52;11.69;97.83
74081;SHT31;62438;52.228;6.864;2023-05-07T04:46:53;11.69;97.92
74081;SHT31;62438;52.228;6.864;2023-05-07T04:48:53;11.66;97.83
74081;SHT31;62438;52.228;6.864;2023-05-07T04:50:54;11.65;98.02
74081;SHT31;62438;52.228;6.864;2023-05-07T04:52:54;11.64;97.71
74081;SHT31;62438;52.228;6.864;2023-05-07T04:54:55;11.78;97.68
74081;SHT31;62438;52.228;6.864;2023-05-07T04:56:56;11.74;97.32
74081;SHT31;62438;52.228;6.864;2023-05-07T04:58:56;11.71;97.55
74081;SHT31;62438;52.228;6.864;2023-05-07T05:00:58;11.66;97.82
74081;SHT31;62438;52.228;6.864;2023-05-07T05:02:58;11.69;97.85
74081;SHT31;62438;52.228;6.864;2023-05-07T05:04:58;11.69;97.70
74081;SHT31;62438;52.228;6.864;2023-05-07T05:07:00;11.74;97.36
74081;SHT31;62438;52.228;6.864;2023-05-07T05:09:00;11.68;97.53
74081;SHT31;62438;52.228;6.864;2023-05-07T05:11:01;11.86;97.94
74081;SHT31;62438;52.228;6.864;2023-05-07T05:13:02;11.89;97.25
74081;SHT31;62438;52.228;6.864;2023-05-07T05:15:03;11.83;97.17
74081;SHT31;62438;52.228;6.864;2023-05-07T05:17:03;11.93;97.28
74081;SHT31;62438;52.228;6.864;2023-05-07T05:19:04;11.99;96.61
74081;SHT31;62438;52.228;6.864;2023-05-07T05:21:04;11.97;96.16
74081;SHT31;62438;52.228;6.864;2023-05-07T05:23:05;11.90;96.67
74081;SHT31;62438;52.228;6.864;2023-05-07T05:25:06;11.92;96.70
74081;SHT31;62438;52.228;6.864;2023-05-07T05:27:06;11.89;97.17
74081;SHT31;62438;52.228;6.864;2023-05-07T05:29:07;12.02;97.18
74081;SHT31;62438;52.228;6.864;2023-05-07T05:31:08;12.07;97.28
74081;SHT31;62438;52.228;6.864;2023-05-07T05:33:08;11.95;96.68
74081;SHT31;62438;52.228;6.864;2023-05-07T05:35:08;12.10;96.56
74081;SHT31;62438;52.228;6.864;2023-05-07T05:37:09;12.09;96.26
74081;SHT31;62438;52.228;6.864;2023-05-07T05:39:09;12.03;95.86
74081;SHT31;62438;52.228;6.864;2023-05-07T05:41:10;12.17;96.20
74081;SHT31;62438;52.228;6.864;2023-05-07T05:43:10;12.16;95.74
74081;SHT31;62438;52.228;6.864;2023-05-07T05:45:11;12.15;96.09
74081;SHT31;62438;52.228;6.864;2023-05-07T05:47:11;12.33;96.15
74081;SHT31;62438;52.228;6.864;2023-05-07T05:49:11;12.41;95.80
74081;SHT31;62438;52.228;6.864;2023-05-07T05:51:12;12.32;95.28
74081;SHT31;62438;52.228;6.864;2023-05-07T05:53:12;12.36;95.78
74081;SHT31;62438;52.228;6.864;2023-05-07T05:55:13;12.41;95.55
74081;SHT31;62438;52.228;6.864;2023-05-07T05:57:13;12.32;95.37
74081;SHT31;62438;52.228;6.864;2023-05-07T05:59:13;12.36;95.88
74081;SHT31;62438;52.228;6.864;2023-05-07T06:01:14;12.46;95.33
74081;SHT31;62438;52.228;6.864;2023-05-07T06:03:14;12.48;94.93
74081;SHT31;62438;52.228;6.864;2023-05-07T06:05:15;12.46;95.24
74081;SHT31;62438;52.228;6.864;2023-05-07T06:07:15;12.54;94.87
74081;SHT31;62438;52.228;6.864;2023-05-07T06:09:15;12.61;94.81
74081;SHT31;62438;52.228;6.864;2023-05-07T06:11:16;12.64;94.85
74081;SHT31;62438;52.228;6.864;2023-05-07T06:13:16;12.77;94.25
74081;SHT31;62438;52.228;6.864;2023-05-07T06:15:17;12.87;94.53
74081;SHT31;62438;52.228;6.864;2023-05-07T06:17:17;12.81;94.69
74081;SHT31;62438;52.228;6.864;2023-05-07T06:19:18;12.81;94.49
74081;SHT31;62438;52.228;6.864;2023-05-07T06:21:23;12.87;94.09
74081;SHT31;62438;52.228;6.864;2023-05-07T06:23:23;12.85;93.56
74081;SHT31;62438;52.228;6.864;2023-05-07T06:25:23;12.81;93.59
74081;SHT31;62438;52.228;6.864;2023-05-07T06:27:24;12.80;94.32
74081;SHT31;62438;52.228;6.864;2023-05-07T06:29:25;12.88;94.67
74081;SHT31;62438;52.228;6.864;2023-05-07T06:31:29;12.94;93.24
74081;SHT31;62438;52.228;6.864;2023-05-07T06:33:31;12.88;93.84
74081;SHT31;62438;52.228;6.864;2023-05-07T06:35:31;12.91;94.37
74081;SHT31;62438;52.228;6.864;2023-05-07T06:37:32;12.96;94.83
74081;SHT31;62438;52.228;6.864;2023-05-07T06:39:33;12.84;94.21
74081;SHT31;62438;52.228;6.864;2023-05-07T06:41:33;12.88;94.59
74081;SHT31;62438;52.228;6.864;2023-05-07T06:43:35;12.99;93.29
74081;SHT31;62438;52.228;6.864;2023-05-07T06:45:35;12.96;94.37
74081;SHT31;62438;52.228;6.864;2023-05-07T06:47:36;12.96;94.61
74081;SHT31;62438;52.228;6.864;2023-05-07T06:49:36;13.08;94.01
74081;SHT31;62438;52.228;6.864;2023-05-07T06:51:37;13.03;93.80
74081;SHT31;62438;52.228;6.864;2023-05-07T06:53:37;13.01;93.47
74081;SHT31;62438;52.228;6.864;2023-05-07T06:55:37;13.05;93.30
74081;SHT31;62438;52.228;6.864;2023-05-07T06:57:38;13.15;93.15
74081;SHT31;62438;52.228;6.864;2023-05-07T06:59:38;13.26;92.92
74081;SHT31;62438;52.228;6.864;2023-05-07T07:01:39;13.23;92.59
74081;SHT31;62438;52.228;6.864;2023-05-07T07:03:40;13.27;93.30
74081;SHT31;62438;52.228;6.864;2023-05-07T07:05:41;13.42;94.01
74081;SHT31;62438;52.228;6.864;2023-05-07T07:07:42;13.50;92.48
74081;SHT31;62438;52.228;6.864;2023-05-07T07:09:42;13.63;93.08
74081;SHT31;62438;52.228;6.864;2023-05-07T07:11:42;13.82;91.60
74081;SHT31;62438;52.228;6.864;2023-05-07T07:13:43;13.74;91.86
74081;SHT31;62438;52.228;6.864;2023-05-07T07:15:43;13.91;92.76
74081;SHT31;62438;52.228;6.864;2023-05-07T07:17:44;14.02;91.26
74081;SHT31;62438;52.228;6.864;2023-05-07T07:19:44;14.12;91.69
74081;SHT31;62438;52.228;6.864;2023-05-07T07:21:45;14.07;91.14
74081;SHT31;62438;52.228;6.864;2023-05-07T07:23:45;13.98;91.12
74081;SHT31;62438;52.228;6.864;2023-05-07T07:25:46;13.94;89.87
74081;SHT31;62438;52.228;6.864;2023-05-07T07:27:46;13.97;89.75
74081;SHT31;62438;52.228;6.864;2023-05-07T07:29:46;13.97;90.87
74081;SHT31;62438;52.228;6.864;2023-05-07T07:31:48;13.87;91.07
74081;SHT31;62438;52.228;6.864;2023-05-07T07:33:49;14.01;91.42
74081;SHT31;62438;52.228;6.864;2023-05-07T07:35:50;14.05;89.89
74081;SHT31;62438;52.228;6.864;2023-05-07T07:37:50;14.11;90.21
74081;SHT31;62438;52.228;6.864;2023-05-07T07:39:51;14.40;90.62
74081;SHT31;62438;52.228;6.864;2023-05-07T07:41:51;14.43;89.47
74081;SHT31;62438;52.228;6.864;2023-05-07T07:43:52;14.28;89.88
74081;SHT31;62438;52.228;6.864;2023-05-07T07:45:52;14.42;90.49
74081;SHT31;62438;52.228;6.864;2023-05-07T07:47:52;14.50;89.63
74081;SHT31;62438;52.228;6.864;2023-05-07T07:49:53;14.81;88.86
74081;SHT31;62438;52.228;6.864;2023-05-07T07:51:53;14.69;88.19
74081;SHT31;62438;52.228;6.864;2023-05-07T07:53:54;14.84;90.11
74081;SHT31;62438;52.228;6.864;2023-05-07T07:55:54;14.86;87.14
74081;SHT31;62438;52.228;6.864;2023-05-07T07:57:54;14.76;87.69
74081;SHT31;62438;52.228;6.864;2023-05-07T07:59:55;14.72;89.08
74081;SHT31;62438;52.228;6.864;2023-05-07T08:01:55;14.86;88.96
74081;SHT31;62438;52.228;6.864;2023-05-07T08:03:57;14.89;89.99
74081;SHT31;62438;52.228;6.864;2023-05-07T08:06:00;14.77;88.27
74081;SHT31;62438;52.228;6.864;2023-05-07T08:08:00;14.77;88.46
74081;SHT31;62438;52.228;6.864;2023-05-07T08:10:01;14.97;88.44
74081;SHT31;62438;52.228;6.864;2023-05-07T08:12:02;15.18;88.14
74081;SHT31;62438;52.228;6.864;2023-05-07T08:14:03;15.21;87.56
74081;SHT31;62438;52.228;6.864;2023-05-07T08:16:04;15.31;87.87
74081;SHT31;62438;52.228;6.864;2023-05-07T08:18:04;15.30;86.42
74081;SHT31;62438;52.228;6.864;2023-05-07T08:20:05;15.62;87.75
74081;SHT31;62438;52.228;6.864;2023-05-07T08:22:06;15.75;85.65
74081;SHT31;62438;52.228;6.864;2023-05-07T08:24:07;15.73;86.21
74081;SHT31;62438;52.228;6.864;2023-05-07T08:26:08;15.69;86.85
74081;SHT31;62438;52.228;6.864;2023-05-07T08:28:08;15.59;86.33
74081;SHT31;62438;52.228;6.864;2023-05-07T08:30:09;15.76;86.90
74081;SHT31;62438;52.228;6.864;2023-05-07T08:32:10;15.68;85.55
74081;SHT31;62438;52.228;6.864;2023-05-07T08:34:10;15.90;84.86
74081;SHT31;62438;52.228;6.864;2023-05-07T08:36:11;16.07;84.68
74081;SHT31;62438;52.228;6.864;2023-05-07T08:38:11;16.10;85.34
74081;SHT31;62438;52.228;6.864;2023-05-07T08:40:12;16.09;83.81
74081;SHT31;62438;52.228;6.864;2023-05-07T08:42:14;16.12;83.30
74081;SHT31;62438;52.228;6.864;2023-05-07T08:44:18;16.14;84.51
74081;SHT31;62438;52.228;6.864;2023-05-07T08:46:21;16.47;83.56
74081;SHT31;62438;52.228;6.864;2023-05-07T08:48:25;16.23;84.10
74081;SHT31;62438;52.228;6.864;2023-05-07T08:50:28;16.44;83.22
74081;SHT31;62438;52.228;6.864;2023-05-07T08:52:29;16.53;82.72
74081;SHT31;62438;52.228;6.864;2023-05-07T08:54:30;16.54;82.01
74081;SHT31;62438;52.228;6.864;2023-05-07T08:56:31;16.45;81.89
74081;SHT31;62438;52.228;6.864;2023-05-07T08:58:32;16.57;81.95
74081;SHT31;62438;52.228;6.864;2023-05-07T09:00:32;16.58;81.99
74081;SHT31;62438;52.228;6.864;2023-05-07T09:02:35;16.86;81.22
74081;SHT31;62438;52.228;6.864;2023-05-07T09:04:35;17.01;81.77
74081;SHT31;62438;52.228;6.864;2023-05-07T09:06:36;16.72;81.57
74081;SHT31;62438;52.228;6.864;2023-05-07T09:08:38;16.82;82.05
74081;SHT31;62438;52.228;6.864;2023-05-07T09:10:38;17.02;80.96
74081;SHT31;62438;52.228;6.864;2023-05-07T09:12:39;16.82;82.05
74081;SHT31;62438;52.228;6.864;2023-05-07T09:14:40;17.01;82.16
74081;SHT31;62438;52.228;6.864;2023-05-07T09:16:40;16.84;81.77
74081;SHT31;62438;52.228;6.864;2023-05-07T09:18:44;17.03;82.53
74081;SHT31;62438;52.228;6.864;2023-05-07T09:20:45;16.92;81.03
74081;SHT31;62438;52.228;6.864;2023-05-07T09:22:45;17.30;80.49
74081;SHT31;62438;52.228;6.864;2023-05-07T09:24:49;17.54;79.31
74081;SHT31;62438;52.228;6.864;2023-05-07T09:26:50;17.70;80.12
74081;SHT31;62438;52.228;6.864;2023-05-07T09:28:51;17.81;78.21
74081;SHT31;62438;52.228;6.864;2023-05-07T09:30:51;17.95;78.95
74081;SHT31;62438;52.228;6.864;2023-05-07T09:32:53;17.73;78.41
74081;SHT31;62438;52.228;6.864;2023-05-07T09:34:53;17.99;79.15
74081;SHT31;62438;52.228;6.864;2023-05-07T09:36:54;17.88;79.29
74081;SHT31;62438;52.228;6.864;2023-05-07T09:38:55;18.06;77.75
74081;SHT31;62438;52.228;6.864;2023-05-07T09:41:11;18.09;76.70
74081;SHT31;62438;52.228;6.864;2023-05-07T09:43:13;18.09;78.74
74081;SHT31;62438;52.228;6.864;2023-05-07T09:45:13;17.87;77.98
74081;SHT31;62438;52.228;6.864;2023-05-07T09:47:18;17.91;78.73
74081;SHT31;62438;52.228;6.864;2023-05-07T09:49:22;18.32;77.70
74081;SHT31;62438;52.228;6.864;2023-05-07T09:53:39;18.29;77.31
74081;SHT31;62438;52.228;6.864;2023-05-07T09:55:41;18.69;79.27
74081;SHT31;62438;52.228;6.864;2023-05-07T09:57:42;18.78;76.29
74081;SHT31;62438;52.228;6.864;2023-05-07T09:59:44;19.03;75.24
74081;SHT31;62438;52.228;6.864;2023-05-07T10:01:46;19.42;73.89
74081;SHT31;62438;52.228;6.864;2023-05-07T10:03:46;19.77;74.72
74081;SHT31;62438;52.228;6.864;2023-05-07T10:05:47;19.63;74.32
74081;SHT31;62438;52.228;6.864;2023-05-07T10:07:50;19.83;73.28
74081;SHT31;62438;52.228;6.864;2023-05-07T10:09:51;19.93;73.25
74081;SHT31;62438;52.228;6.864;2023-05-07T10:11:52;19.72;72.79
74081;SHT31;62438;52.228;6.864;2023-05-07T10:13:53;19.76;73.40
74081;SHT31;62438;52.228;6.864;2023-05-07T10:15:55;19.56;72.85
74081;SHT31;62438;52.228;6.864;2023-05-07T10:17:55;19.63;73.60
74081;SHT31;62438;52.228;6.864;2023-05-07T10:19:56;19.77;70.66
74081;SHT31;62438;52.228;6.864;2023-05-07T10:22:03;19.63;72.60
74081;SHT31;62438;52.228;6.864;2023-05-07T10:24:05;19.25;73.34
74081;SHT31;62438;52.228;6.864;2023-05-07T10:26:09;19.46;75.15
74081;SHT31;62438;52.228;6.864;2023-05-07T10:28:10;19.39;73.06
74081;SHT31;62438;52.228;6.864;2023-05-07T10:32:38;19.79;75.79
74081;SHT31;62438;52.228;6.864;2023-05-07T10:34:43;19.27;73.99
74081;SHT31;62438;52.228;6.864;2023-05-07T10:36:45;19.01;75.92
74081;SHT31;62438;52.228;6.864;2023-05-07T10:38:45;19.44;75.59
74081;SHT31;62438;52.228;6.864;2023-05-07T10:40:46;19.86;74.20
74081;SHT31;62438;52.228;6.864;2023-05-07T10:43:00;19.86;74.32
74081;SHT31;62438;52.228;6.864;2023-05-07T10:45:14;19.66;74.53
74081;SHT31;62438;52.228;6.864;2023-05-07T10:47:16;19.77;74.39
74081;SHT31;62438;52.228;6.864;2023-05-07T10:49:18;20.12;73.51
74081;SHT31;62438;52.228;6.864;2023-05-07T10:51:21;20.18;72.16
74081;SHT31;62438;52.228;6.864;2023-05-07T10:53:23;19.94;73.05
74081;SHT31;62438;52.228;6.864;2023-05-07T10:55:26;20.16;72.49
74081;SHT31;62438;52.228;6.864;2023-05-07T10:57:32;19.79;71.98
74081;SHT31;62438;52.228;6.864;2023-05-07T10:59:34;20.21;73.55
74081;SHT31;62438;52.228;6.864;2023-05-07T11:04:15;19.76;72.63
74081;SHT31;62438;52.228;6.864;2023-05-07T11:06:17;20.82;71.53
74081;SHT31;62438;52.228;6.864;2023-05-07T11:08:17;21.00;67.96
74081;SHT31;62438;52.228;6.864;2023-05-07T11:10:18;21.00;68.53
74081;SHT31;62438;52.228;6.864;2023-05-07T11:16:43;21.29;69.79
74081;SHT31;62438;52.228;6.864;2023-05-07T11:18:48;21.53;68.87
74081;SHT31;62438;52.228;6.864;2023-05-07T11:22:51;21.58;67.71
74081;SHT31;62438;52.228;6.864;2023-05-07T11:24:53;22.01;67.99
74081;SHT31;62438;52.228;6.864;2023-05-07T11:26:54;22.06;65.59
74081;SHT31;62438;52.228;6.864;2023-05-07T11:28:55;21.81;64.76
74081;SHT31;62438;52.228;6.864;2023-05-07T11:30:57;22.04;65.80
74081;SHT31;62438;52.228;6.864;2023-05-07T11:32:58;22.04;65.75
74081;SHT31;62438;52.228;6.864;2023-05-07T11:34:59;22.09;63.38
74081;SHT31;62438;52.228;6.864;2023-05-07T11:37:00;22.08;63.98
74081;SHT31;62438;52.228;6.864;2023-05-07T11:39:01;21.80;65.66
74081;SHT31;62438;52.228;6.864;2023-05-07T11:41:02;21.75;64.62
74081;SHT31;62438;52.228;6.864;2023-05-07T11:43:11;21.89;65.08
74081;SHT31;62438;52.228;6.864;2023-05-07T11:45:11;21.41;64.75
74081;SHT31;62438;52.228;6.864;2023-05-07T11:47:17;21.67;65.21
74081;SHT31;62438;52.228;6.864;2023-05-07T11:49:18;21.39;65.92
74081;SHT31;62438;52.228;6.864;2023-05-07T11:51:23;21.50;66.44
74081;SHT31;62438;52.228;6.864;2023-05-07T11:53:27;21.43;68.66
74081;SHT31;62438;52.228;6.864;2023-05-07T11:55:28;21.43;66.69
74081;SHT31;62438;52.228;6.864;2023-05-07T11:57:29;21.44;65.47
74081;SHT31;62438;52.228;6.864;2023-05-07T11:59:29;21.55;64.92
74081;SHT31;62438;52.228;6.864;2023-05-07T12:01:30;21.49;66.61
74081;SHT31;62438;52.228;6.864;2023-05-07T12:03:30;21.53;64.88
74081;SHT31;62438;52.228;6.864;2023-05-07T12:05:31;21.51;66.46
74081;SHT31;62438;52.228;6.864;2023-05-07T12:07:33;21.81;64.30
74081;SHT31;62438;52.228;6.864;2023-05-07T12:09:34;21.82;66.40
74081;SHT31;62438;52.228;6.864;2023-05-07T12:11:34;22.10;64.97
74081;SHT31;62438;52.228;6.864;2023-05-07T12:13:35;22.77;63.58
74081;SHT31;62438;52.228;6.864;2023-05-07T12:15:35;22.83;62.54
74081;SHT31;62438;52.228;6.864;2023-05-07T12:17:36;22.80;60.20
74081;SHT31;62438;52.228;6.864;2023-05-07T12:19:39;23.35;61.06
74081;SHT31;62438;52.228;6.864;2023-05-07T12:21:40;22.55;58.86
74081;SHT31;62438;52.228;6.864;2023-05-07T12:23:40;23.19;59.13
74081;SHT31;62438;52.228;6.864;2023-05-07T12:25:42;23.15;60.91
74081;SHT31;62438;52.228;6.864;2023-05-07T12:27:51;22.96;61.20
74081;SHT31;62438;52.228;6.864;2023-05-07T12:29:52;23.21;59.95
74081;SHT31;62438;52.228;6.864;2023-05-07T12:31:52;23.28;60.36
74081;SHT31;62438;52.228;6.864;2023-05-07T12:33:53;23.56;59.27
74081;SHT31;62438;52.228;6.864;2023-05-07T12:35:55;23.53;57.92
74081;SHT31;62438;52.228;6.864;2023-05-07T12:37:57;23.63;60.68
74081;SHT31;62438;52.228;6.864;2023-05-07T12:40:09;23.97;57.24
74081;SHT31;62438;52.228;6.864;2023-05-07T12:42:14;22.43;59.89
74081;SHT31;62438;52.228;6.864;2023-05-07T12:44:15;22.12;61.99
74081;SHT31;62438;52.228;6.864;2023-05-07T12:46:15;22.15;61.42
74081;SHT31;62438;52.228;6.864;2023-05-07T12:48:19;22.30;61.25
74081;SHT31;62438;52.228;6.864;2023-05-07T12:50:20;22.81;60.06
74081;SHT31;62438;52.228;6.864;2023-05-07T12:52:23;22.96;59.87
74081;SHT31;62438;52.228;6.864;2023-05-07T12:54:31;23.29;59.08
74081;SHT31;62438;52.228;6.864;2023-05-07T12:56:35;22.84;61.40
74081;SHT31;62438;52.228;6.864;2023-05-07T12:58:36;22.73;61.86